createdAt,value
2019-04-22T00:00:01.024Z,5.08
2019-04-22T00:01:38.199Z,5.08
2019-04-22T00:03:15.192Z,5.06
2019-04-22T00:05:01.089Z,5.04
2019-04-22T00:06:51.602Z,5.00
2019-04-22T00:08:24.210Z,4.98
2019-04-22T00:10:06.365Z,4.97
2019-04-22T00:11:35.512Z,4.98
2019-04-22T00:13:17.122Z,4.97
2019-04-22T00:14:47.132Z,4.93
2019-04-22T00:16:34.275Z,4.91
2019-04-22T00:18:07.499Z,4.87
2019-04-22T00:19:43.881Z,4.83
2019-04-22T00:21:13.010Z,4.79
2019-04-22T00:22:46.469Z,4.76
2019-04-22T00:24:27.259Z,4.74
2019-04-22T00:26:06.961Z,4.70
2019-04-22T00:27:41.317Z,4.69
2019-04-22T00:29:39.473Z,4.63
2019-04-22T00:30:51.315Z,4.56
2019-04-22T00:32:28.295Z,4.51
2019-04-22T00:34:06.738Z,4.44
2019-04-22T00:35:41.309Z,4.37
2019-04-22T00:37:17.598Z,4.34
2019-04-22T00:38:51.630Z,4.31
2019-04-22T00:40:37.656Z,4.28
2019-04-22T00:42:08.324Z,4.28
2019-04-22T00:43:48.040Z,4.26
2019-04-22T00:45:24.901Z,4.26
2019-04-22T00:46:59.560Z,4.25
2019-04-22T00:48:32.299Z,4.27
2019-04-22T00:53:23.592Z,4.28
2019-04-22T00:54:58.896Z,4.28
2019-04-22T00:56:27.637Z,4.27
2019-04-22T00:58:12.169Z,4.25
2019-04-22T00:59:46.862Z,4.24
2019-04-22T01:01:20.405Z,4.23
2019-04-22T01:02:58.846Z,4.20
2019-04-22T01:04:34.747Z,4.15
2019-04-22T01:06:12.993Z,4.12
2019-04-22T01:07:43.535Z,4.06
2019-04-22T01:09:19.077Z,4.05
2019-04-22T01:10:52.740Z,4.03
2019-04-22T01:12:31.952Z,4.02
2019-04-22T01:14:06.594Z,4.02
2019-04-22T01:15:54.073Z,4.03
2019-04-22T01:17:24.153Z,4.04
2019-04-22T01:18:54.846Z,4.04
2019-04-22T01:22:06.141Z,4.05
2019-04-22T01:23:41.166Z,4.07
2019-04-22T01:25:20.540Z,4.08
2019-04-22T01:26:52.682Z,4.05
2019-04-22T01:28:25.365Z,3.96
2019-04-22T01:29:59.674Z,3.91
2019-04-22T01:31:30.608Z,3.84
2019-04-22T01:33:10.747Z,3.78
2019-04-22T01:34:52.414Z,3.77
2019-04-22T01:36:33.925Z,3.74
2019-04-22T01:38:07.818Z,3.75
2019-04-22T01:39:50.467Z,3.77
2019-04-22T01:41:37.691Z,3.78
2019-04-22T01:43:14.187Z,3.75
2019-04-22T01:44:40.366Z,3.73
2019-04-22T01:46:19.182Z,3.70
2019-04-22T01:47:49.161Z,3.71
2019-04-22T01:49:30.105Z,3.72
2019-04-22T01:51:01.396Z,3.71
2019-04-22T01:52:43.128Z,3.73
2019-04-22T01:54:22.249Z,3.72
2019-04-22T01:55:53.368Z,3.73
2019-04-22T01:57:28.866Z,3.70
2019-04-22T01:58:59.227Z,3.69
2019-04-22T02:00:44.345Z,3.69
2019-04-22T02:02:19.140Z,3.67
2019-04-22T02:03:57.841Z,3.65
2019-04-22T02:05:28.675Z,3.66
2019-04-22T02:07:09.657Z,3.64
2019-04-22T02:10:30.152Z,3.64
2019-04-22T02:12:04.111Z,3.63
2019-04-22T02:13:35.357Z,3.61
2019-04-22T02:15:12.049Z,3.59
2019-04-22T02:16:49.801Z,3.59
2019-04-22T02:18:23.388Z,3.58
2019-04-22T02:20:00.497Z,3.54
2019-04-22T02:21:30.189Z,3.50
2019-04-22T02:23:43.885Z,3.43
2019-04-22T02:25:01.507Z,3.38
2019-04-22T02:26:40.670Z,3.35
2019-04-22T02:28:18.410Z,3.33
2019-04-22T02:29:47.706Z,3.33
2019-04-22T02:33:30.610Z,3.25
2019-04-22T02:34:39.716Z,3.18
2019-04-22T02:36:27.269Z,3.15
2019-04-22T02:37:45.753Z,3.13
2019-04-22T02:39:33.990Z,3.12
2019-04-22T02:42:35.063Z,3.14
2019-04-22T02:44:16.770Z,3.12
2019-04-22T02:46:07.378Z,3.09
2019-04-22T02:47:35.150Z,3.09
2019-04-22T02:49:14.193Z,3.10
2019-04-22T02:50:39.278Z,3.07
2019-04-22T02:52:20.445Z,3.03
2019-04-22T02:55:23.094Z,2.99
2019-04-22T02:57:03.727Z,3.01
2019-04-22T02:58:52.688Z,2.98
2019-04-22T03:00:18.318Z,2.97
2019-04-22T03:01:47.741Z,2.97
2019-04-22T03:03:31.054Z,2.96
2019-04-22T03:05:00.596Z,2.97
2019-04-22T03:09:38.494Z,2.99
2019-04-22T03:11:25.222Z,3.01
2019-04-22T03:12:54.041Z,3.01
2019-04-22T03:14:30.666Z,3.00
2019-04-22T03:16:26.011Z,3.00
2019-04-22T03:19:25.893Z,2.98
2019-04-22T03:21:00.208Z,2.99
2019-04-22T03:22:31.801Z,2.98
2019-04-22T03:28:51.421Z,2.93
2019-04-22T03:33:40.044Z,2.88
2019-04-22T03:38:35.002Z,2.89
2019-04-22T03:40:07.661Z,2.91
2019-04-22T03:41:48.206Z,2.90
2019-04-22T03:43:30.768Z,2.88
2019-04-22T03:46:21.466Z,2.78
2019-04-22T03:51:16.546Z,2.77
2019-04-22T03:52:38.387Z,2.77
2019-04-22T03:54:29.054Z,2.77
2019-04-22T03:55:51.331Z,2.78
2019-04-22T03:59:19.937Z,2.84
2019-04-22T04:02:24.312Z,2.88
2019-04-22T04:04:07.113Z,2.90
2019-04-22T04:07:22.475Z,2.98
2019-04-22T04:13:30.373Z,3.07
2019-04-22T04:16:49.866Z,3.20
2019-04-22T04:18:12.892Z,3.29
2019-04-22T04:20:10.557Z,3.27
2019-04-22T04:24:55.876Z,3.38
2019-04-22T04:26:17.753Z,3.42
2019-04-22T04:31:09.903Z,3.65
2019-04-22T04:32:41.396Z,3.75
2019-04-22T04:34:41.130Z,3.82
2019-04-22T04:36:01.822Z,3.91
2019-04-22T04:37:40.956Z,4.00
2019-04-22T04:42:25.434Z,4.28
2019-04-22T04:43:52.596Z,4.38
2019-04-22T04:47:01.079Z,4.58
2019-04-22T04:48:47.211Z,4.68
2019-04-22T04:53:29.264Z,4.90
2019-04-22T04:54:59.001Z,5.12
2019-04-22T04:58:13.359Z,6.22
2019-04-22T05:01:23.339Z,7.38
2019-04-22T05:03:08.096Z,7.78
2019-04-22T05:04:43.695Z,8.02
2019-04-22T05:06:10.641Z,8.45
2019-04-22T05:07:55.378Z,8.99
2019-04-22T05:09:26.133Z,9.47
2019-04-22T05:14:09.299Z,9.86
2019-04-22T05:15:43.434Z,10.11
2019-04-22T05:17:18.275Z,10.50
2019-04-22T05:20:38.758Z,11.42
2019-04-22T05:23:45.361Z,11.86
2019-04-22T05:26:48.809Z,12.36
2019-04-22T05:28:24.428Z,12.71
2019-04-22T05:30:19.812Z,13.06
2019-04-22T05:31:39.996Z,13.32
2019-04-22T05:33:07.365Z,13.22
2019-04-22T05:34:48.123Z,13.18
2019-04-22T05:36:44.453Z,13.34
2019-04-22T05:38:03.128Z,13.53
2019-04-22T05:39:36.791Z,13.53
2019-04-22T05:41:16.409Z,13.34
2019-04-22T05:42:51.309Z,12.96
2019-04-22T05:44:29.533Z,12.71
2019-04-22T05:46:04.305Z,12.87
2019-04-22T05:47:42.534Z,13.38
2019-04-22T05:49:28.918Z,13.80
2019-04-22T05:50:50.444Z,14.04
2019-04-22T05:52:25.012Z,14.08
2019-04-22T05:54:01.521Z,14.37
2019-04-22T05:55:43.883Z,14.84
2019-04-22T05:57:17.940Z,15.36
2019-04-22T05:58:56.578Z,15.56
2019-04-22T06:00:37.022Z,15.50
2019-04-22T06:02:21.082Z,15.22
2019-04-22T06:03:39.721Z,14.79
2019-04-22T06:05:32.744Z,14.86
2019-04-22T06:06:47.009Z,14.74
2019-04-22T06:08:24.277Z,14.88
2019-04-22T06:10:04.667Z,15.20
2019-04-22T06:11:32.147Z,15.19
2019-04-22T06:13:09.902Z,15.25
2019-04-22T06:14:54.272Z,15.58
2019-04-22T06:16:31.069Z,16.04
2019-04-22T06:19:44.654Z,15.98
2019-04-22T06:23:00.282Z,16.29
2019-04-22T06:24:50.477Z,16.01
2019-04-22T06:27:52.475Z,15.95
2019-04-22T06:29:20.537Z,16.20
2019-04-22T06:31:06.907Z,16.22
2019-04-22T06:32:31.413Z,16.19
2019-04-22T06:34:12.221Z,16.14
2019-04-22T06:38:55.883Z,17.33
2019-04-22T06:40:31.600Z,17.53
2019-04-22T06:43:56.171Z,18.20
2019-04-22T06:45:24.899Z,18.20
2019-04-22T06:46:56.353Z,18.30
2019-04-22T06:48:30.135Z,18.27
2019-04-22T06:50:08.030Z,18.50
2019-04-22T06:51:55.561Z,18.64
2019-04-22T06:53:29.749Z,19.08
2019-04-22T06:56:42.628Z,19.98
2019-04-22T06:58:16.418Z,19.92
2019-04-22T06:59:53.680Z,19.64
2019-04-22T07:01:30.100Z,19.44
2019-04-22T07:03:30.140Z,19.59
2019-04-22T07:04:47.186Z,19.93
2019-04-22T07:06:27.648Z,20.29
2019-04-22T07:08:02.736Z,20.72
2019-04-22T07:09:34.969Z,21.03
2019-04-22T07:11:01.708Z,21.09
2019-04-22T07:12:41.458Z,21.41
2019-04-22T07:14:28.571Z,21.60
2019-04-22T07:16:03.911Z,21.81
2019-04-22T07:17:50.493Z,21.85
2019-04-22T07:19:24.988Z,22.28
2019-04-22T07:20:48.034Z,22.63
2019-04-22T07:22:18.119Z,22.86
2019-04-22T07:24:02.691Z,22.99
2019-04-22T07:27:10.516Z,23.02
2019-04-22T07:28:38.046Z,23.08
2019-04-22T07:30:21.985Z,23.39
2019-04-22T07:35:08.405Z,23.27
2019-04-22T07:38:25.675Z,23.51
2019-04-22T07:39:51.393Z,23.64
2019-04-22T07:41:34.598Z,24.04
2019-04-22T07:43:11.941Z,24.00
2019-04-22T07:44:45.306Z,24.50
2019-04-22T07:46:22.961Z,24.81
2019-04-22T07:48:03.141Z,25.10
2019-04-22T07:51:07.465Z,25.23
2019-04-22T07:52:43.445Z,24.86
2019-04-22T07:54:20.739Z,24.60
2019-04-22T07:56:01.394Z,24.76
2019-04-22T07:57:32.637Z,25.17
2019-04-22T07:59:13.904Z,25.51
2019-04-22T08:01:03.513Z,25.81
2019-04-22T08:02:26.107Z,25.98
2019-04-22T08:04:15.404Z,26.11
2019-04-22T08:07:12.915Z,26.64
2019-04-22T08:08:45.955Z,27.12
2019-04-22T08:10:35.665Z,27.52
2019-04-22T08:12:18.876Z,27.52
2019-04-22T08:13:36.712Z,27.66
2019-04-22T08:15:12.661Z,27.94
2019-04-22T08:16:51.934Z,27.82
2019-04-22T08:18:21.890Z,26.76
2019-04-22T08:20:02.988Z,26.35
2019-04-22T08:21:31.938Z,26.64
2019-04-22T08:23:09.039Z,26.78
2019-04-22T08:24:51.444Z,26.97
2019-04-22T08:26:19.558Z,27.36
2019-04-22T08:27:57.268Z,27.78
2019-04-22T08:29:46.012Z,28.18
2019-04-22T08:32:46.349Z,28.49
2019-04-22T08:34:19.531Z,28.34
2019-04-22T08:36:11.959Z,28.59
2019-04-22T08:39:14.124Z,29.49
2019-04-22T08:41:06.599Z,29.74
2019-04-22T08:42:53.333Z,30.13
2019-04-22T08:44:18.712Z,30.40
2019-04-22T08:46:17.438Z,30.53
2019-04-22T08:47:31.070Z,30.52
2019-04-22T08:49:05.780Z,30.57
2019-04-22T08:50:44.360Z,30.33
2019-04-22T08:52:20.730Z,30.71
2019-04-22T08:54:00.091Z,30.99
2019-04-22T08:57:11.035Z,30.01
2019-04-22T08:58:52.328Z,29.11
2019-04-22T09:00:20.044Z,28.02
2019-04-22T09:01:56.869Z,27.89
2019-04-22T09:03:30.413Z,28.00
2019-04-22T09:05:12.226Z,28.09
2019-04-22T09:07:01.176Z,27.98
2019-04-22T09:10:00.048Z,28.02
2019-04-22T09:13:05.899Z,28.46
2019-04-22T09:16:27.899Z,28.56
2019-04-22T09:18:01.990Z,28.06
2019-04-22T09:19:28.504Z,28.00
2019-04-22T09:21:22.679Z,28.19
2019-04-22T09:22:47.307Z,28.50
2019-04-22T09:24:23.364Z,28.47
2019-04-22T09:25:57.590Z,28.58
2019-04-22T09:27:38.480Z,28.05
2019-04-22T09:29:12.793Z,27.40
2019-04-22T09:30:48.199Z,26.69
2019-04-22T09:32:38.683Z,26.40
2019-04-22T09:33:53.370Z,26.30
2019-04-22T09:35:37.567Z,26.77
2019-04-22T09:37:34.160Z,26.87
2019-04-22T09:40:22.417Z,26.90
2019-04-22T09:41:57.229Z,26.91
2019-04-22T09:43:45.479Z,27.22
2019-04-22T09:45:11.348Z,27.40
2019-04-22T09:46:48.625Z,27.65
2019-04-22T09:48:23.483Z,28.13
2019-04-22T09:51:30.827Z,27.63
2019-04-22T09:53:08.647Z,27.81
2019-04-22T09:54:57.015Z,27.12
2019-04-22T09:56:23.863Z,26.50
2019-04-22T09:57:58.843Z,26.02
2019-04-22T09:59:36.734Z,25.96
2019-04-22T10:02:55.853Z,26.22
2019-04-22T10:04:18.807Z,26.28
2019-04-22T10:06:11.751Z,26.71
2019-04-22T10:07:33.456Z,26.86
2019-04-22T10:09:34.646Z,27.03
2019-04-22T10:10:48.959Z,26.78
2019-04-22T10:12:29.152Z,26.76
2019-04-22T10:14:01.639Z,26.49
2019-04-22T10:15:39.235Z,26.69
2019-04-22T10:17:15.528Z,27.07
2019-04-22T10:18:52.943Z,27.28
2019-04-22T10:20:29.522Z,27.38
2019-04-22T10:21:56.912Z,27.38
2019-04-22T10:23:41.575Z,27.28
2019-04-22T10:25:18.167Z,26.80
2019-04-22T10:28:32.251Z,26.20
2019-04-22T10:30:00.103Z,25.79
2019-04-22T10:33:11.649Z,25.60
2019-04-22T10:34:34.790Z,25.51
2019-04-22T10:36:01.607Z,25.78
2019-04-22T10:37:36.589Z,25.92
2019-04-22T10:39:12.657Z,25.94
2019-04-22T10:40:47.085Z,25.64
2019-04-22T10:42:23.025Z,25.55
2019-04-22T10:43:57.315Z,25.65
2019-04-22T10:45:32.362Z,25.71
2019-04-22T10:47:06.744Z,25.65
2019-04-22T10:48:42.060Z,25.50
2019-04-22T10:50:18.491Z,25.73
2019-04-22T10:51:53.164Z,25.87
2019-04-22T10:53:27.372Z,25.63
2019-04-22T10:55:03.369Z,25.34
2019-04-22T10:56:38.920Z,24.93
2019-04-22T10:58:15.004Z,24.85
2019-04-22T10:59:50.387Z,24.53
2019-04-22T11:01:25.662Z,24.53
2019-04-22T11:03:02.236Z,24.61
2019-04-22T11:04:36.757Z,24.67
2019-04-22T11:06:11.652Z,24.77
2019-04-22T11:07:51.969Z,24.70
2019-04-22T11:09:23.908Z,24.73
2019-04-22T11:11:10.863Z,24.75
2019-04-22T11:12:35.693Z,24.58
2019-04-22T11:14:11.008Z,24.28
2019-04-22T11:15:46.734Z,23.96
2019-04-22T11:17:21.782Z,23.88
2019-04-22T11:18:56.097Z,23.80
2019-04-22T11:20:31.407Z,23.81
2019-04-22T11:22:12.820Z,23.90
2019-04-22T11:23:42.698Z,24.04
2019-04-22T11:25:18.040Z,24.22
2019-04-22T11:26:52.798Z,24.47
2019-04-22T11:28:27.719Z,24.60
2019-04-22T11:30:03.793Z,24.69
2019-04-22T11:31:38.796Z,24.76
2019-04-22T11:33:14.288Z,24.79
2019-04-22T11:34:49.142Z,24.68
2019-04-22T11:36:24.748Z,24.69
2019-04-22T11:38:00.996Z,24.80
2019-04-22T11:39:36.672Z,24.58
2019-04-22T11:41:12.676Z,24.39
2019-04-22T11:42:48.264Z,24.13
2019-04-22T11:44:25.392Z,24.16
2019-04-22T11:46:00.171Z,24.09
2019-04-22T11:47:35.359Z,24.12
2019-04-22T11:49:09.957Z,24.19
2019-04-22T11:50:45.997Z,24.27
2019-04-22T11:52:20.904Z,24.27
2019-04-22T11:53:56.575Z,24.17
2019-04-22T11:55:32.900Z,24.15
2019-04-22T11:57:07.486Z,23.98
2019-04-22T11:58:42.655Z,23.76
2019-04-22T12:00:20.815Z,23.59
2019-04-22T12:01:55.414Z,23.69
2019-04-22T12:03:29.689Z,23.85
2019-04-22T12:05:06.051Z,23.93
2019-04-22T12:06:41.887Z,24.03
2019-04-22T12:08:17.342Z,23.92
2019-04-22T12:09:53.294Z,23.84
2019-04-22T12:11:28.400Z,23.96
2019-04-22T12:13:03.917Z,23.99
2019-04-22T12:14:40.164Z,23.86
2019-04-22T12:16:14.423Z,23.92
2019-04-22T12:17:49.127Z,23.77
2019-04-22T12:19:23.452Z,23.77
2019-04-22T12:20:59.113Z,23.51
2019-04-22T12:22:34.274Z,23.97
2019-04-22T12:24:10.913Z,24.01
2019-04-22T12:25:52.535Z,24.01
2019-04-22T12:27:22.824Z,24.08
2019-04-22T12:28:57.425Z,24.06
2019-04-22T12:30:33.277Z,24.12
2019-04-22T12:32:09.340Z,24.14
2019-04-22T12:33:45.316Z,23.91
2019-04-22T12:35:20.211Z,23.74
2019-04-22T12:36:56.254Z,23.84
2019-04-22T12:38:31.506Z,23.56
2019-04-22T12:40:10.811Z,23.46
2019-04-22T12:41:46.699Z,23.40
2019-04-22T12:43:23.897Z,23.31
2019-04-22T12:45:00.443Z,23.15
2019-04-22T12:46:36.358Z,23.01
2019-04-22T12:48:10.965Z,22.78
2019-04-22T12:49:46.981Z,22.71
2019-04-22T12:51:22.913Z,22.68
2019-04-22T12:53:03.233Z,22.64
2019-04-22T12:54:35.112Z,22.67
2019-04-22T12:56:10.983Z,22.64
2019-04-22T12:57:46.454Z,22.63
2019-04-22T12:59:21.491Z,22.63
2019-04-22T13:00:57.068Z,22.61
2019-04-22T13:02:33.133Z,22.61
2019-04-22T13:04:11.779Z,22.68
2019-04-22T13:05:46.980Z,22.82
2019-04-22T13:07:25.920Z,22.75
2019-04-22T13:09:02.069Z,22.63
2019-04-22T13:10:47.086Z,22.62
2019-04-22T13:12:13.127Z,22.60
2019-04-22T13:13:49.145Z,22.57
2019-04-22T13:15:26.431Z,22.63
2019-04-22T13:17:03.932Z,22.68
2019-04-22T13:18:47.229Z,22.70
2019-04-22T13:20:18.032Z,22.68
2019-04-22T13:21:51.928Z,22.64
2019-04-22T13:23:31.852Z,22.59
2019-04-22T13:25:10.262Z,22.52
2019-04-22T13:26:45.249Z,22.51
2019-04-22T13:28:21.062Z,22.57
2019-04-22T13:29:59.501Z,22.50
2019-04-22T13:31:34.930Z,22.44
2019-04-22T13:33:10.573Z,22.42
2019-04-22T13:34:49.793Z,22.48
2019-04-22T13:36:23.724Z,22.46
2019-04-22T13:37:59.238Z,22.52
2019-04-22T13:39:34.799Z,22.48
2019-04-22T13:41:21.455Z,22.47
2019-04-22T13:42:46.779Z,22.58
2019-04-22T13:44:21.312Z,22.64
2019-04-22T13:45:56.178Z,22.74
2019-04-22T13:47:49.175Z,22.83
2019-04-22T13:49:43.339Z,22.83
2019-04-22T13:53:00.675Z,22.85
2019-04-22T13:56:10.113Z,22.89
2019-04-22T13:57:25.768Z,22.91
2019-04-22T13:58:56.381Z,22.93
2019-04-22T14:00:36.619Z,23.03
2019-04-22T14:02:12.808Z,22.87
2019-04-22T14:03:50.019Z,22.75
2019-04-22T14:05:26.872Z,22.67
2019-04-22T14:07:02.796Z,22.73
2019-04-22T14:08:37.562Z,22.71
2019-04-22T14:10:12.376Z,22.55
2019-04-22T14:11:55.435Z,22.43
2019-04-22T14:13:23.978Z,22.49
2019-04-22T14:14:58.470Z,22.55
2019-04-22T14:16:33.300Z,22.51
2019-04-22T14:18:10.744Z,22.60
2019-04-22T14:19:46.600Z,22.69
2019-04-22T14:21:21.160Z,22.76
2019-04-22T14:22:56.755Z,22.77
2019-04-22T14:24:31.040Z,22.82
2019-04-22T14:26:07.207Z,22.92
2019-04-22T14:27:51.335Z,22.94
2019-04-22T14:29:19.588Z,22.83
2019-04-22T14:30:56.880Z,22.91
2019-04-22T14:32:33.908Z,22.93
2019-04-22T14:34:09.636Z,22.96
2019-04-22T14:35:43.720Z,22.97
2019-04-22T14:37:18.638Z,22.97
2019-04-22T14:38:54.392Z,23.00
2019-04-22T14:40:30.290Z,23.03
2019-04-22T14:42:27.058Z,23.04
2019-04-22T14:44:49.711Z,22.97
2019-04-22T14:45:50.687Z,22.99
2019-04-22T14:47:20.058Z,23.01
2019-04-22T14:48:57.583Z,23.03
2019-04-22T14:50:32.272Z,22.86
2019-04-22T14:52:13.308Z,22.97
2019-04-22T14:53:43.487Z,22.99
2019-04-22T14:55:07.084Z,22.95
2019-04-22T14:56:34.158Z,22.95
2019-04-22T14:58:09.051Z,22.73
2019-04-22T14:59:43.961Z,22.55
2019-04-22T15:01:19.130Z,22.47
2019-04-22T15:02:53.659Z,22.51
2019-04-22T15:04:29.015Z,22.58
2019-04-22T15:06:06.347Z,22.57
2019-04-22T15:07:41.235Z,22.38
2019-04-22T15:09:16.247Z,22.27
2019-04-22T15:10:51.690Z,22.12
2019-04-22T15:12:34.494Z,21.96
2019-04-22T15:14:03.288Z,21.83
2019-04-22T15:15:44.195Z,21.79
2019-04-22T15:17:29.267Z,21.84
2019-04-22T15:19:05.196Z,21.83
2019-04-22T15:20:41.622Z,21.82
2019-04-22T15:22:16.761Z,21.80
2019-04-22T15:23:52.771Z,21.84
2019-04-22T15:25:28.364Z,21.80
2019-04-22T15:27:02.808Z,21.78
2019-04-22T15:28:39.611Z,21.78
2019-04-22T15:30:17.670Z,21.77
2019-04-22T15:31:53.387Z,21.72
2019-04-22T15:33:27.984Z,21.74
2019-04-22T15:35:02.266Z,21.67
2019-04-22T15:36:37.819Z,21.62
2019-04-22T15:38:15.550Z,21.61
2019-04-22T15:39:49.997Z,21.83
2019-04-22T15:41:24.916Z,22.16
2019-04-22T15:42:59.731Z,22.40
2019-04-22T15:44:33.996Z,22.32
2019-04-22T15:46:09.926Z,22.25
2019-04-22T15:47:48.228Z,22.07
2019-04-22T15:49:24.339Z,21.88
2019-04-22T15:50:58.673Z,21.60
2019-04-22T15:52:41.972Z,21.39
2019-04-22T15:54:09.731Z,21.23
2019-04-22T15:55:44.892Z,21.14
2019-04-22T15:57:20.392Z,21.09
2019-04-22T15:58:55.494Z,21.12
2019-04-22T16:00:42.171Z,21.15
2019-04-22T16:02:08.268Z,21.03
2019-04-22T16:03:43.165Z,20.83
2019-04-22T16:05:17.456Z,20.76
2019-04-22T16:06:54.748Z,20.62
2019-04-22T16:08:32.420Z,20.50
2019-04-22T16:10:10.092Z,20.37
2019-04-22T16:11:45.651Z,20.25
2019-04-22T16:13:24.677Z,20.16
2019-04-22T16:14:59.725Z,20.09
2019-04-22T16:16:34.739Z,19.97
2019-04-22T16:18:12.549Z,19.88
2019-04-22T16:19:46.684Z,19.82
2019-04-22T16:21:34.124Z,19.76
2019-04-22T16:23:09.627Z,19.70
2019-04-22T16:24:58.253Z,19.62
2019-04-22T16:26:40.412Z,19.50
2019-04-22T16:28:15.438Z,19.41
2019-04-22T16:29:49.920Z,19.35
2019-04-22T16:31:25.075Z,19.31
2019-04-22T16:33:03.474Z,19.24
2019-04-22T16:34:38.149Z,19.15
2019-04-22T16:36:13.104Z,19.12
2019-04-22T16:37:48.601Z,19.06
2019-04-22T16:39:24.582Z,19.00
2019-04-22T16:40:59.075Z,18.90
2019-04-22T16:42:45.844Z,18.85
2019-04-22T16:48:15.777Z,18.63
2019-04-22T16:49:50.223Z,18.57
2019-04-22T16:51:26.010Z,18.52
2019-04-22T16:53:01.962Z,18.44
2019-04-22T16:54:36.880Z,18.38
2019-04-22T16:56:12.864Z,18.30
2019-04-22T16:57:48.224Z,18.24
2019-04-22T16:59:22.783Z,18.16
2019-04-22T17:00:58.597Z,18.08
2019-04-22T17:02:34.945Z,17.99
2019-04-22T17:04:28.360Z,17.92
2019-04-22T17:06:07.914Z,17.82
2019-04-22T17:07:42.649Z,17.73
2019-04-22T17:09:17.745Z,17.62
2019-04-22T17:10:53.508Z,17.53
2019-04-22T17:12:40.847Z,17.47
2019-04-22T17:14:05.567Z,17.43
2019-04-22T17:15:43.166Z,17.36
2019-04-22T17:17:18.336Z,17.29
2019-04-22T17:18:56.316Z,17.25
2019-04-22T17:20:31.254Z,17.14
2019-04-22T17:22:06.038Z,17.12
2019-04-22T17:23:41.397Z,17.04
2019-04-22T17:25:18.156Z,17.00
2019-04-22T17:26:52.845Z,16.97
2019-04-22T17:28:27.700Z,16.91
2019-04-22T17:30:02.487Z,16.89
2019-04-22T17:31:40.870Z,16.84
2019-04-22T17:33:14.614Z,16.79
2019-04-22T17:34:49.687Z,16.75
2019-04-22T17:36:24.385Z,16.71
2019-04-22T17:38:08.892Z,16.71
2019-04-22T17:39:50.241Z,16.69
2019-04-22T17:41:24.417Z,16.67
2019-04-22T17:43:28.490Z,16.61
2019-04-22T17:44:48.380Z,16.58
2019-04-22T17:46:19.475Z,16.55
2019-04-22T17:48:12.666Z,16.53
2019-04-22T17:49:53.788Z,16.50
2019-04-22T17:51:31.148Z,16.46
2019-04-22T17:53:08.731Z,16.40
2019-04-22T17:54:40.731Z,16.38
2019-04-22T17:56:22.030Z,16.36
2019-04-22T17:57:49.207Z,16.36
2019-04-22T17:59:35.966Z,16.33
2019-04-22T18:01:09.209Z,16.32
2019-04-22T18:02:39.634Z,16.27
2019-04-22T18:04:06.399Z,16.22
2019-04-22T18:05:49.616Z,16.22
2019-04-22T18:07:52.198Z,16.21
2019-04-22T18:09:11.284Z,16.20
2019-04-22T18:10:47.760Z,16.18
2019-04-22T18:12:33.600Z,16.16
2019-04-22T18:14:24.398Z,16.14
2019-04-22T18:15:37.707Z,16.10
2019-04-22T18:17:11.204Z,16.06
2019-04-22T18:18:50.805Z,16.03
2019-04-22T18:20:22.591Z,16.00
2019-04-22T18:21:54.804Z,16.01
2019-04-22T18:23:24.958Z,15.97
2019-04-22T18:25:10.696Z,15.95
2019-04-22T18:26:53.482Z,15.94
2019-04-22T18:28:30.477Z,15.93
2019-04-22T18:30:04.010Z,15.93
2019-04-22T18:31:35.821Z,15.91
2019-04-22T18:33:23.957Z,15.88
2019-04-22T18:34:50.395Z,15.83
2019-04-22T18:36:33.352Z,15.79
2019-04-22T18:38:27.104Z,15.77
2019-04-22T18:39:53.037Z,15.75
2019-04-22T18:41:17.840Z,15.72
2019-04-22T18:43:03.685Z,15.72
2019-04-22T18:44:44.584Z,15.72
2019-04-22T18:46:15.806Z,15.70
2019-04-22T18:47:46.566Z,15.70
2019-04-22T18:49:30.695Z,15.69
2019-04-22T18:51:27.708Z,15.67
2019-04-22T18:53:03.655Z,15.62
2019-04-22T18:54:48.423Z,15.59
2019-04-22T18:56:19.283Z,15.58
2019-04-22T18:58:00.853Z,15.55
2019-04-22T18:59:25.585Z,15.53
2019-04-22T19:00:57.692Z,15.53
2019-04-22T19:02:37.095Z,15.53
2019-04-22T19:04:17.486Z,15.53
2019-04-22T19:06:13.170Z,15.05
2019-04-22T19:07:49.250Z,15.48
2019-04-22T19:09:30.442Z,15.47
2019-04-22T19:11:08.243Z,15.44
2019-04-22T19:12:47.431Z,15.40
2019-04-22T19:14:33.578Z,15.38
2019-04-22T19:16:24.400Z,15.38
2019-04-22T19:17:35.144Z,15.34
2019-04-22T19:19:20.469Z,15.30
2019-04-22T19:20:42.380Z,15.26
2019-04-22T19:22:16.222Z,15.25
2019-04-22T19:23:49.204Z,15.24
2019-04-22T19:25:27.997Z,15.26
2019-04-22T19:27:23.570Z,15.27
2019-04-22T19:28:45.228Z,15.28
2019-04-22T19:30:22.054Z,15.27
2019-04-22T19:31:55.847Z,15.26
2019-04-22T19:33:35.154Z,15.23
2019-04-22T19:35:11.579Z,15.22
2019-04-22T19:36:48.462Z,15.21
2019-04-22T19:38:14.097Z,15.22
2019-04-22T19:40:03.531Z,15.21
2019-04-22T19:41:37.128Z,15.20
2019-04-22T19:43:15.494Z,15.23
2019-04-22T19:44:53.174Z,14.61
2019-04-22T19:46:22.157Z,15.28
2019-04-22T19:48:05.205Z,15.28
2019-04-22T19:49:49.557Z,15.28
2019-04-22T19:51:17.200Z,15.25
2019-04-22T19:52:44.664Z,15.25
2019-04-22T19:54:23.221Z,15.27
2019-04-22T19:55:58.599Z,15.26
2019-04-22T19:57:37.473Z,15.25
2019-04-22T19:59:07.410Z,15.25
2019-04-22T20:01:02.406Z,15.29
2019-04-22T20:02:46.248Z,15.33
2019-04-22T20:04:36.419Z,15.35
2019-04-22T20:06:09.989Z,15.38
2019-04-22T20:07:41.857Z,15.31
2019-04-22T20:09:33.384Z,15.39
2019-04-22T20:11:03.677Z,15.38
2019-04-22T20:12:38.805Z,15.41
2019-04-22T20:14:18.966Z,15.42
2019-04-22T20:15:43.294Z,15.40
2019-04-22T20:17:28.613Z,15.43
2019-04-22T20:19:06.250Z,15.45
2019-04-22T20:20:41.315Z,15.45
2019-04-22T20:22:15.800Z,15.45
2019-04-22T20:23:42.060Z,15.45
2019-04-22T20:25:27.242Z,15.44
2019-04-22T20:27:05.663Z,15.40
2019-04-22T20:28:42.060Z,15.40
2019-04-22T20:30:17.644Z,15.43
2019-04-22T20:31:54.622Z,15.44
2019-04-22T20:33:33.237Z,15.44
2019-04-22T20:35:07.898Z,15.41
2019-04-22T20:36:58.019Z,15.41
2019-04-22T20:38:14.882Z,15.43
2019-04-22T20:39:57.198Z,15.42
2019-04-22T20:41:24.952Z,15.39
2019-04-22T20:43:07.609Z,15.42
2019-04-22T20:44:41.262Z,15.40
2019-04-22T20:46:15.086Z,15.38
2019-04-22T20:47:45.012Z,15.38
2019-04-22T20:49:30.562Z,15.35
2019-04-22T20:51:07.636Z,15.35
2019-04-22T20:52:46.807Z,15.32
2019-04-22T20:54:17.420Z,15.33
2019-04-22T20:55:52.407Z,15.35
2019-04-22T20:57:34.724Z,15.34
2019-04-22T20:59:08.195Z,15.32
2019-04-22T21:00:36.577Z,15.33
2019-04-22T21:02:15.325Z,15.34
2019-04-22T21:03:43.752Z,15.33
2019-04-22T21:05:24.979Z,15.33
2019-04-22T21:07:02.252Z,15.30
2019-04-22T21:08:42.017Z,15.29
2019-04-22T21:10:15.866Z,15.24
2019-04-22T21:11:53.638Z,15.20
2019-04-22T21:13:23.122Z,15.16
2019-04-22T21:15:12.547Z,15.18
2019-04-22T21:16:46.405Z,15.15
2019-04-22T21:18:15.401Z,15.12
2019-04-22T21:20:00.404Z,15.10
2019-04-22T21:21:33.370Z,15.10
2019-04-22T21:23:06.014Z,15.08
2019-04-22T21:24:40.253Z,15.06
2019-04-22T21:26:19.538Z,15.03
2019-04-22T21:27:58.254Z,15.01
2019-04-22T21:29:26.579Z,14.96
2019-04-22T21:31:05.835Z,14.94
2019-04-22T21:32:38.874Z,15.03
2019-04-22T21:34:19.591Z,15.02
2019-04-22T21:37:38.634Z,14.98
2019-04-22T21:39:09.663Z,14.97
2019-04-22T21:40:44.093Z,14.95
2019-04-22T21:42:22.177Z,14.91
2019-04-22T21:44:00.980Z,14.88
2019-04-22T21:45:23.794Z,14.89
2019-04-22T21:47:16.264Z,14.87
2019-04-22T21:48:48.935Z,14.85
2019-04-22T21:52:01.541Z,14.86
2019-04-22T21:53:45.459Z,14.83
2019-04-22T21:55:16.934Z,14.76
2019-04-22T21:57:18.818Z,14.68
2019-04-22T21:58:55.976Z,14.56
2019-04-22T22:00:44.562Z,14.49
2019-04-22T22:02:25.673Z,14.44
2019-04-22T22:04:03.100Z,14.42
2019-04-22T22:05:28.654Z,14.41
2019-04-22T22:06:55.633Z,14.33
2019-04-22T22:08:46.065Z,14.30
2019-04-22T22:10:24.010Z,14.27
2019-04-22T22:11:52.790Z,14.21
2019-04-22T22:13:34.872Z,14.16
2019-04-22T22:15:08.322Z,14.16
2019-04-22T22:16:41.583Z,14.13
2019-04-22T22:18:12.266Z,14.09
2019-04-22T22:19:54.497Z,14.04
2019-04-22T22:21:43.915Z,13.99
2019-04-22T22:23:20.954Z,13.97
2019-04-22T22:24:46.423Z,13.92
2019-04-22T22:26:15.349Z,13.91
2019-04-22T22:27:59.842Z,13.85
2019-04-22T22:29:48.012Z,13.81
2019-04-22T22:31:14.884Z,13.79
2019-04-22T22:32:40.195Z,13.74
2019-04-22T22:34:24.818Z,13.67
2019-04-22T22:35:58.382Z,13.62
2019-04-22T22:37:20.523Z,13.61
2019-04-22T22:39:04.009Z,13.60
2019-04-22T22:40:29.811Z,13.56
2019-04-22T22:42:01.822Z,13.52
2019-04-22T22:43:42.009Z,13.49
2019-04-22T22:45:25.549Z,13.46